sensor_id;sensor_type;location;lat;lon;timestamp;pressure;altitude;pressure_sealevel;temperature;humidity
59831;BME280;45711;50.108;13.712;2022-11-13T00:01:52;99265.78;;;1.48;100.00
59831;BME280;45711;50.108;13.712;2022-11-13T00:04:18;99262.22;;;1.56;100.00
59831;BME280;45711;50.108;13.712;2022-11-13T00:06:43;99275.03;;;1.59;100.00
59831;BME280;45711;50.108;13.712;2022-11-13T00:09:10;99273.59;;;1.56;100.00
59831;BME280;45711;50.108;13.712;2022-11-13T00:11:36;99272.84;;;1.62;100.00
59831;BME280;45711;50.108;13.712;2022-11-13T00:14:01;99270.91;;;1.92;100.00
59831;BME280;45711;50.108;13.712;2022-11-13T00:16:28;99261.47;;;2.05;100.00
59831;BME280;45711;50.108;13.712;2022-11-13T00:18:54;99266.44;;;1.71;100.00
59831;BME280;45711;50.108;13.712;2022-11-13T00:21:21;99267.34;;;1.79;100.00
59831;BME280;45711;50.108;13.712;2022-11-13T00:23:48;99266.38;;;1.86;100.00
59831;BME280;45711;50.108;13.712;2022-11-13T00:26:16;99256.81;;;2.07;100.00
59831;BME280;45711;50.108;13.712;2022-11-13T00:28:42;99257.72;;;1.92;100.00
59831;BME280;45711;50.108;13.712;2022-11-13T00:31:09;99254.50;;;1.97;100.00
59831;BME280;45711;50.108;13.712;2022-11-13T00:33:36;99250.38;;;1.88;100.00
59831;BME280;45711;50.108;13.712;2022-11-13T00:36:03;99254.75;;;1.81;100.00
59831;BME280;45711;50.108;13.712;2022-11-13T00:38:29;99249.25;;;1.75;100.00
59831;BME280;45711;50.108;13.712;2022-11-13T00:40:55;99243.50;;;1.93;100.00
59831;BME280;45711;50.108;13.712;2022-11-13T00:43:20;99241.38;;;1.82;100.00
59831;BME280;45711;50.108;13.712;2022-11-13T00:45:46;99238.47;;;1.77;100.00
59831;BME280;45711;50.108;13.712;2022-11-13T00:48:11;99238.88;;;1.53;100.00
59831;BME280;45711;50.108;13.712;2022-11-13T00:50:39;99244.31;;;1.51;100.00
59831;BME280;45711;50.108;13.712;2022-11-13T00:53:04;99233.50;;;1.46;100.00
59831;BME280;45711;50.108;13.712;2022-11-13T00:55:30;99236.59;;;1.49;100.00
59831;BME280;45711;50.108;13.712;2022-11-13T00:57:55;99234.13;;;1.48;100.00
59831;BME280;45711;50.108;13.712;2022-11-13T01:00:21;99236.94;;;1.61;100.00
59831;BME280;45711;50.108;13.712;2022-11-13T01:02:47;99236.75;;;1.48;100.00
59831;BME280;45711;50.108;13.712;2022-11-13T01:05:12;99240.03;;;1.29;100.00
59831;BME280;45711;50.108;13.712;2022-11-13T01:07:39;99243.06;;;1.47;100.00
59831;BME280;45711;50.108;13.712;2022-11-13T01:10:06;99237.03;;;1.53;100.00
59831;BME280;45711;50.108;13.712;2022-11-13T01:12:32;99231.81;;;1.60;100.00
59831;BME280;45711;50.108;13.712;2022-11-13T01:14:58;99227.22;;;1.47;100.00
59831;BME280;45711;50.108;13.712;2022-11-13T01:17:24;99230.63;;;1.41;100.00
59831;BME280;45711;50.108;13.712;2022-11-13T01:19:49;99227.28;;;1.32;100.00
59831;BME280;45711;50.108;13.712;2022-11-13T01:22:15;99228.91;;;1.33;100.00
59831;BME280;45711;50.108;13.712;2022-11-13T01:24:42;99228.28;;;1.31;100.00
59831;BME280;45711;50.108;13.712;2022-11-13T01:27:08;99224.44;;;1.34;100.00
59831;BME280;45711;50.108;13.712;2022-11-13T01:29:33;99231.06;;;1.44;100.00
59831;BME280;45711;50.108;13.712;2022-11-13T01:31:59;99214.66;;;1.28;100.00
59831;BME280;45711;50.108;13.712;2022-11-13T01:34:24;99224.47;;;1.55;100.00
59831;BME280;45711;50.108;13.712;2022-11-13T01:36:50;99219.13;;;1.48;100.00
59831;BME280;45711;50.108;13.712;2022-11-13T01:39:16;99225.16;;;1.42;100.00
59831;BME280;45711;50.108;13.712;2022-11-13T01:41:43;99224.22;;;1.50;100.00
59831;BME280;45711;50.108;13.712;2022-11-13T01:44:11;99218.94;;;1.71;100.00
59831;BME280;45711;50.108;13.712;2022-11-13T01:46:39;99219.84;;;1.57;100.00
59831;BME280;45711;50.108;13.712;2022-11-13T01:49:17;99227.91;;;1.34;100.00
59831;BME280;45711;50.108;13.712;2022-11-13T01:51:48;99224.34;;;1.63;100.00
59831;BME280;45711;50.108;13.712;2022-11-13T01:54:17;99210.81;;;1.73;100.00
59831;BME280;45711;50.108;13.712;2022-11-13T01:56:46;99221.78;;;1.70;100.00
59831;BME280;45711;50.108;13.712;2022-11-13T01:59:14;99221.34;;;1.66;100.00
59831;BME280;45711;50.108;13.712;2022-11-13T02:01:40;99207.50;;;1.43;100.00
59831;BME280;45711;50.108;13.712;2022-11-13T02:04:06;99211.97;;;1.85;100.00
59831;BME280;45711;50.108;13.712;2022-11-13T02:06:35;99221.59;;;1.50;100.00
59831;BME280;45711;50.108;13.712;2022-11-13T02:09:04;99212.09;;;1.77;100.00
59831;BME280;45711;50.108;13.712;2022-11-13T02:11:30;99205.19;;;1.55;100.00
59831;BME280;45711;50.108;13.712;2022-11-13T02:13:57;99216.06;;;1.45;100.00
59831;BME280;45711;50.108;13.712;2022-11-13T02:16:23;99205.75;;;1.50;100.00
59831;BME280;45711;50.108;13.712;2022-11-13T02:18:49;99204.16;;;1.34;100.00
59831;BME280;45711;50.108;13.712;2022-11-13T02:21:25;99205.22;;;1.18;100.00
59831;BME280;45711;50.108;13.712;2022-11-13T02:23:59;99195.66;;;1.17;100.00
59831;BME280;45711;50.108;13.712;2022-11-13T02:26:29;99194.56;;;1.27;100.00
59831;BME280;45711;50.108;13.712;2022-11-13T02:28:55;99184.75;;;1.85;100.00
59831;BME280;45711;50.108;13.712;2022-11-13T02:31:21;99182.69;;;1.59;98.90
59831;BME280;45711;50.108;13.712;2022-11-13T02:33:46;99184.41;;;1.66;99.48
59831;BME280;45711;50.108;13.712;2022-11-13T02:36:13;99190.09;;;1.27;100.00
59831;BME280;45711;50.108;13.712;2022-11-13T02:38:40;99190.03;;;1.20;100.00
59831;BME280;45711;50.108;13.712;2022-11-13T02:41:06;99184.03;;;1.27;100.00
59831;BME280;45711;50.108;13.712;2022-11-13T02:43:33;99192.88;;;1.40;100.00
59831;BME280;45711;50.108;13.712;2022-11-13T02:45:59;99190.41;;;1.60;99.00
59831;BME280;45711;50.108;13.712;2022-11-13T02:48:24;99192.88;;;1.04;100.00
59831;BME280;45711;50.108;13.712;2022-11-13T02:50:50;99193.41;;;1.14;100.00
59831;BME280;45711;50.108;13.712;2022-11-13T02:53:15;99190.59;;;1.16;100.00
59831;BME280;45711;50.108;13.712;2022-11-13T02:55:41;99189.78;;;1.15;100.00
59831;BME280;45711;50.108;13.712;2022-11-13T02:58:06;99176.16;;;1.33;100.00
59831;BME280;45711;50.108;13.712;2022-11-13T03:00:33;99177.09;;;1.25;100.00
59831;BME280;45711;50.108;13.712;2022-11-13T03:02:59;99185.44;;;1.29;100.00
59831;BME280;45711;50.108;13.712;2022-11-13T03:05:25;99183.25;;;1.33;100.00
59831;BME280;45711;50.108;13.712;2022-11-13T03:07:50;99176.81;;;1.35;100.00
59831;BME280;45711;50.108;13.712;2022-11-13T03:10:16;99180.88;;;1.38;100.00
59831;BME280;45711;50.108;13.712;2022-11-13T03:12:42;99173.28;;;1.28;100.00
59831;BME280;45711;50.108;13.712;2022-11-13T03:15:08;99178.34;;;1.30;100.00
59831;BME280;45711;50.108;13.712;2022-11-13T03:17:36;99174.41;;;1.19;100.00
59831;BME280;45711;50.108;13.712;2022-11-13T03:20:02;99172.47;;;1.49;100.00
59831;BME280;45711;50.108;13.712;2022-11-13T03:22:28;99176.50;;;1.45;98.14
59831;BME280;45711;50.108;13.712;2022-11-13T03:24:53;99177.66;;;1.42;99.04
59831;BME280;45711;50.108;13.712;2022-11-13T03:27:19;99180.19;;;1.50;98.60
59831;BME280;45711;50.108;13.712;2022-11-13T03:29:44;99178.81;;;1.33;99.45
59831;BME280;45711;50.108;13.712;2022-11-13T03:32:10;99175.47;;;1.46;99.65
59831;BME280;45711;50.108;13.712;2022-11-13T03:34:37;99174.09;;;1.29;100.00
59831;BME280;45711;50.108;13.712;2022-11-13T03:37:03;99176.78;;;1.14;100.00
59831;BME280;45711;50.108;13.712;2022-11-13T03:39:29;99171.53;;;0.99;100.00
59831;BME280;45711;50.108;13.712;2022-11-13T03:41:54;99164.59;;;0.77;100.00
59831;BME280;45711;50.108;13.712;2022-11-13T03:44:20;99172.41;;;0.85;100.00
59831;BME280;45711;50.108;13.712;2022-11-13T03:46:45;99177.53;;;0.57;100.00
59831;BME280;45711;50.108;13.712;2022-11-13T03:49:11;99186.63;;;1.05;100.00
59831;BME280;45711;50.108;13.712;2022-11-13T03:51:38;99188.41;;;1.41;100.00
59831;BME280;45711;50.108;13.712;2022-11-13T03:54:04;99178.94;;;1.46;100.00
59831;BME280;45711;50.108;13.712;2022-11-13T03:56:29;99177.28;;;1.24;99.43
59831;BME280;45711;50.108;13.712;2022-11-13T03:58:55;99181.25;;;1.13;99.57
59831;BME280;45711;50.108;13.712;2022-11-13T04:01:20;99178.53;;;1.07;99.37
59831;BME280;45711;50.108;13.712;2022-11-13T04:03:46;99185.38;;;0.86;100.00
59831;BME280;45711;50.108;13.712;2022-11-13T04:06:11;99172.03;;;0.73;100.00
59831;BME280;45711;50.108;13.712;2022-11-13T04:08:40;99171.78;;;0.68;100.00
59831;BME280;45711;50.108;13.712;2022-11-13T04:11:06;99173.41;;;0.69;100.00
59831;BME280;45711;50.108;13.712;2022-11-13T04:13:32;99178.13;;;0.73;100.00
59831;BME280;45711;50.108;13.712;2022-11-13T04:15:58;99174.22;;;0.84;100.00
59831;BME280;45711;50.108;13.712;2022-11-13T04:18:23;99161.66;;;0.86;100.00
59831;BME280;45711;50.108;13.712;2022-11-13T04:20:49;99168.75;;;1.00;100.00
59831;BME280;45711;50.108;13.712;2022-11-13T04:23:14;99161.06;;;0.69;100.00
59831;BME280;45711;50.108;13.712;2022-11-13T04:25:43;99168.75;;;0.86;100.00
59831;BME280;45711;50.108;13.712;2022-11-13T04:28:09;99162.44;;;0.65;100.00
59831;BME280;45711;50.108;13.712;2022-11-13T04:30:35;99157.34;;;0.64;100.00
59831;BME280;45711;50.108;13.712;2022-11-13T04:33:00;99163.84;;;0.83;100.00
59831;BME280;45711;50.108;13.712;2022-11-13T04:35:26;99157.41;;;0.85;99.80
59831;BME280;45711;50.108;13.712;2022-11-13T04:37:52;99150.34;;;0.71;100.00
59831;BME280;45711;50.108;13.712;2022-11-13T04:40:18;99156.88;;;0.75;99.92
59831;BME280;45711;50.108;13.712;2022-11-13T04:42:45;99156.78;;;0.83;100.00
59831;BME280;45711;50.108;13.712;2022-11-13T04:45:14;99153.59;;;0.88;99.52
59831;BME280;45711;50.108;13.712;2022-11-13T04:47:40;99156.63;;;0.70;98.94
59831;BME280;45711;50.108;13.712;2022-11-13T04:50:06;99150.81;;;0.60;99.69
59831;BME280;45711;50.108;13.712;2022-11-13T04:52:32;99157.41;;;0.85;99.23
59831;BME280;45711;50.108;13.712;2022-11-13T04:54:58;99152.38;;;0.54;99.68
59831;BME280;45711;50.108;13.712;2022-11-13T04:57:23;99147.00;;;0.47;99.91
59831;BME280;45711;50.108;13.712;2022-11-13T04:59:50;99142.84;;;0.53;100.00
59831;BME280;45711;50.108;13.712;2022-11-13T05:02:16;99142.13;;;0.44;99.86
59831;BME280;45711;50.108;13.712;2022-11-13T05:04:41;99148.28;;;0.37;100.00
59831;BME280;45711;50.108;13.712;2022-11-13T05:07:07;99157.38;;;0.34;100.00
59831;BME280;45711;50.108;13.712;2022-11-13T05:09:32;99159.13;;;0.78;100.00
59831;BME280;45711;50.108;13.712;2022-11-13T05:11:58;99158.91;;;0.58;98.29
59831;BME280;45711;50.108;13.712;2022-11-13T05:14:24;99157.09;;;0.95;97.10
59831;BME280;45711;50.108;13.712;2022-11-13T05:16:50;99155.25;;;0.59;98.81
59831;BME280;45711;50.108;13.712;2022-11-13T05:19:16;99158.19;;;0.49;97.83
59831;BME280;45711;50.108;13.712;2022-11-13T05:21:42;99161.66;;;0.86;98.11
59831;BME280;45711;50.108;13.712;2022-11-13T05:24:09;99149.47;;;0.49;96.71
59831;BME280;45711;50.108;13.712;2022-11-13T05:26:36;99158.09;;;0.58;96.33
59831;BME280;45711;50.108;13.712;2022-11-13T05:29:02;99157.44;;;0.26;98.69
59831;BME280;45711;50.108;13.712;2022-11-13T05:31:27;99152.84;;;0.28;99.36
59831;BME280;45711;50.108;13.712;2022-11-13T05:33:54;99148.66;;;0.48;97.86
59831;BME280;45711;50.108;13.712;2022-11-13T05:36:21;99150.16;;;1.30;97.63
59831;BME280;45711;50.108;13.712;2022-11-13T05:38:47;99152.28;;;0.98;94.08
59831;BME280;45711;50.108;13.712;2022-11-13T05:41:15;99154.00;;;0.55;96.23
59831;BME280;45711;50.108;13.712;2022-11-13T05:43:41;99146.63;;;0.65;94.78
59831;BME280;45711;50.108;13.712;2022-11-13T05:46:13;99138.34;;;0.68;94.51
59831;BME280;45711;50.108;13.712;2022-11-13T05:48:39;99143.28;;;0.42;96.97
59831;BME280;45711;50.108;13.712;2022-11-13T05:51:09;99138.38;;;0.39;95.46
59831;BME280;45711;50.108;13.712;2022-11-13T05:53:35;99134.69;;;0.18;97.14
59831;BME280;45711;50.108;13.712;2022-11-13T05:56:03;99128.16;;;0.14;99.42
59831;BME280;45711;50.108;13.712;2022-11-13T05:58:29;99132.50;;;0.37;98.94
59831;BME280;45711;50.108;13.712;2022-11-13T06:01:04;99135.31;;;0.20;97.46
59831;BME280;45711;50.108;13.712;2022-11-13T06:03:30;99142.56;;;0.33;95.93
59831;BME280;45711;50.108;13.712;2022-11-13T06:05:57;99133.41;;;0.14;96.21
59831;BME280;45711;50.108;13.712;2022-11-13T06:08:24;99132.94;;;0.25;96.59
59831;BME280;45711;50.108;13.712;2022-11-13T06:10:49;99142.00;;;0.08;97.59
59831;BME280;45711;50.108;13.712;2022-11-13T06:13:15;99132.75;;;0.12;96.38
59831;BME280;45711;50.108;13.712;2022-11-13T06:15:40;99143.47;;;-0.04;97.77
59831;BME280;45711;50.108;13.712;2022-11-13T06:18:06;99140.84;;;-0.04;98.70
59831;BME280;45711;50.108;13.712;2022-11-13T06:20:32;99137.22;;;0.12;99.60
59831;BME280;45711;50.108;13.712;2022-11-13T06:22:58;99128.22;;;0.06;98.55
59831;BME280;45711;50.108;13.712;2022-11-13T06:25:25;99133.31;;;0.08;98.42
59831;BME280;45711;50.108;13.712;2022-11-13T06:27:51;99131.88;;;0.05;97.25
59831;BME280;45711;50.108;13.712;2022-11-13T06:30:17;99116.88;;;0.20;97.92
59831;BME280;45711;50.108;13.712;2022-11-13T06:32:43;99124.16;;;0.18;97.26
59831;BME280;45711;50.108;13.712;2022-11-13T06:35:09;99124.31;;;0.17;97.09
59831;BME280;45711;50.108;13.712;2022-11-13T06:37:34;99130.31;;;0.25;96.75
59831;BME280;45711;50.108;13.712;2022-11-13T06:40:00;99122.50;;;0.32;97.73
59831;BME280;45711;50.108;13.712;2022-11-13T06:42:27;99129.84;;;0.37;97.45
59831;BME280;45711;50.108;13.712;2022-11-13T06:44:52;99132.94;;;0.25;97.66
59831;BME280;45711;50.108;13.712;2022-11-13T06:47:18;99138.50;;;0.31;97.08
59831;BME280;45711;50.108;13.712;2022-11-13T06:49:44;99138.19;;;0.25;97.35
59831;BME280;45711;50.108;13.712;2022-11-13T06:52:09;99129.84;;;0.07;97.66
59831;BME280;45711;50.108;13.712;2022-11-13T06:54:35;99121.59;;;0.10;99.34
59831;BME280;45711;50.108;13.712;2022-11-13T06:57:00;99122.97;;;0.36;99.16
59831;BME280;45711;50.108;13.712;2022-11-13T06:59:28;99127.31;;;0.29;98.19
59831;BME280;45711;50.108;13.712;2022-11-13T07:01:53;99125.59;;;0.36;97.63
59831;BME280;45711;50.108;13.712;2022-11-13T07:04:19;99133.13;;;0.39;98.12
59831;BME280;45711;50.108;13.712;2022-11-13T07:06:45;99126.84;;;0.55;98.43
59831;BME280;45711;50.108;13.712;2022-11-13T07:09:10;99128.31;;;0.42;97.92
59831;BME280;45711;50.108;13.712;2022-11-13T07:11:36;99123.94;;;0.49;98.29
59831;BME280;45711;50.108;13.712;2022-11-13T07:14:01;99126.78;;;0.48;98.36
59831;BME280;45711;50.108;13.712;2022-11-13T07:16:28;99135.25;;;0.65;97.21
59831;BME280;45711;50.108;13.712;2022-11-13T07:18:54;99138.13;;;0.85;95.70
59831;BME280;45711;50.108;13.712;2022-11-13T07:21:20;99139.16;;;0.84;95.87
59831;BME280;45711;50.108;13.712;2022-11-13T07:23:47;99128.69;;;0.39;97.85
59831;BME280;45711;50.108;13.712;2022-11-13T07:26:13;99126.22;;;0.53;98.87
59831;BME280;45711;50.108;13.712;2022-11-13T07:28:38;99116.44;;;0.32;98.28
59831;BME280;45711;50.108;13.712;2022-11-13T07:31:05;99126.78;;;0.69;98.31
59831;BME280;45711;50.108;13.712;2022-11-13T07:33:32;99123.09;;;1.21;98.90
59831;BME280;45711;50.108;13.712;2022-11-13T07:35:58;99127.19;;;0.52;97.94
59831;BME280;45711;50.108;13.712;2022-11-13T07:38:23;99126.88;;;0.40;97.94
59831;BME280;45711;50.108;13.712;2022-11-13T07:40:50;99128.84;;;0.53;97.26
59831;BME280;45711;50.108;13.712;2022-11-13T07:43:15;99124.78;;;0.35;98.00
59831;BME280;45711;50.108;13.712;2022-11-13T07:45:41;99127.94;;;0.45;98.36
59831;BME280;45711;50.108;13.712;2022-11-13T07:48:08;99122.75;;;0.52;97.43
59831;BME280;45711;50.108;13.712;2022-11-13T07:50:38;99120.59;;;0.41;98.46
59831;BME280;45711;50.108;13.712;2022-11-13T07:53:05;99113.59;;;0.48;98.24
59831;BME280;45711;50.108;13.712;2022-11-13T07:55:33;99107.78;;;0.53;98.23
59831;BME280;45711;50.108;13.712;2022-11-13T07:58:00;99107.31;;;0.49;98.17
59831;BME280;45711;50.108;13.712;2022-11-13T08:00:27;99108.09;;;0.64;98.63
59831;BME280;45711;50.108;13.712;2022-11-13T08:02:54;99102.16;;;0.77;96.63
59831;BME280;45711;50.108;13.712;2022-11-13T08:05:19;99116.47;;;0.68;97.63
59831;BME280;45711;50.108;13.712;2022-11-13T08:07:47;99121.28;;;0.64;99.36
59831;BME280;45711;50.108;13.712;2022-11-13T08:10:13;99117.91;;;0.70;99.36
59831;BME280;45711;50.108;13.712;2022-11-13T08:12:39;99128.03;;;0.88;97.45
59831;BME280;45711;50.108;13.712;2022-11-13T08:15:05;99118.22;;;0.82;98.62
59831;BME280;45711;50.108;13.712;2022-11-13T08:17:31;99115.00;;;1.02;98.66
59831;BME280;45711;50.108;13.712;2022-11-13T08:19:56;99120.19;;;0.95;98.11
59831;BME280;45711;50.108;13.712;2022-11-13T08:22:22;99118.09;;;1.05;98.53
59831;BME280;45711;50.108;13.712;2022-11-13T08:24:52;99122.66;;;0.96;98.95
59831;BME280;45711;50.108;13.712;2022-11-13T08:27:18;99120.03;;;0.96;98.44
59831;BME280;45711;50.108;13.712;2022-11-13T08:29:43;99109.09;;;1.21;98.04
59831;BME280;45711;50.108;13.712;2022-11-13T08:32:09;99110.47;;;1.17;98.11
59831;BME280;45711;50.108;13.712;2022-11-13T08:34:38;99095.34;;;1.25;98.92
59831;BME280;45711;50.108;13.712;2022-11-13T08:37:03;99102.13;;;1.35;97.92
59831;BME280;45711;50.108;13.712;2022-11-13T08:39:29;99093.72;;;1.24;96.55
59831;BME280;45711;50.108;13.712;2022-11-13T08:41:56;99090.84;;;1.19;97.37
59831;BME280;45711;50.108;13.712;2022-11-13T08:44:22;99088.34;;;1.39;96.93
59831;BME280;45711;50.108;13.712;2022-11-13T08:46:47;99101.53;;;1.39;96.81
59831;BME280;45711;50.108;13.712;2022-11-13T08:49:13;99093.81;;;1.59;96.16
59831;BME280;45711;50.108;13.712;2022-11-13T08:51:39;99102.19;;;1.41;96.07
59831;BME280;45711;50.108;13.712;2022-11-13T08:54:04;99110.91;;;1.42;97.24
59831;BME280;45711;50.108;13.712;2022-11-13T08:56:30;99110.53;;;1.45;98.65
59831;BME280;45711;50.108;13.712;2022-11-13T08:58:57;99103.03;;;1.70;98.82
59831;BME280;45711;50.108;13.712;2022-11-13T09:01:24;99091.16;;;1.87;97.00
59831;BME280;45711;50.108;13.712;2022-11-13T09:03:50;99099.97;;;1.66;97.43
59831;BME280;45711;50.108;13.712;2022-11-13T09:06:15;99101.09;;;1.85;96.40
59831;BME280;45711;50.108;13.712;2022-11-13T09:08:41;99104.59;;;1.64;97.04
59831;BME280;45711;50.108;13.712;2022-11-13T09:11:07;99101.03;;;1.50;98.08
59831;BME280;45711;50.108;13.712;2022-11-13T09:13:33;99098.91;;;1.39;98.66
59831;BME280;45711;50.108;13.712;2022-11-13T09:16:01;99104.00;;;1.69;98.94
59831;BME280;45711;50.108;13.712;2022-11-13T09:18:30;99101.59;;;1.67;98.49
59831;BME280;45711;50.108;13.712;2022-11-13T09:20:59;99101.47;;;1.54;99.45
59831;BME280;45711;50.108;13.712;2022-11-13T09:23:25;99099.72;;;1.61;99.87
59831;BME280;45711;50.108;13.712;2022-11-13T09:25:51;99103.22;;;1.96;98.99
59831;BME280;45711;50.108;13.712;2022-11-13T09:28:16;99097.75;;;2.05;98.92
59831;BME280;45711;50.108;13.712;2022-11-13T09:30:42;99086.59;;;2.44;96.66
59831;BME280;45711;50.108;13.712;2022-11-13T09:33:10;99091.56;;;2.25;97.57
59831;BME280;45711;50.108;13.712;2022-11-13T09:35:40;99091.72;;;2.11;98.44
59831;BME280;45711;50.108;13.712;2022-11-13T09:38:08;99086.06;;;2.20;99.19
59831;BME280;45711;50.108;13.712;2022-11-13T09:40:37;99100.72;;;2.23;98.72
59831;BME280;45711;50.108;13.712;2022-11-13T09:43:06;99092.31;;;2.54;99.32
59831;BME280;45711;50.108;13.712;2022-11-13T09:45:38;99088.56;;;3.03;96.57
59831;BME280;45711;50.108;13.712;2022-11-13T09:48:22;99082.81;;;2.73;95.50
59831;BME280;45711;50.108;13.712;2022-11-13T09:50:50;99089.28;;;2.57;97.19
59831;BME280;45711;50.108;13.712;2022-11-13T09:53:16;99083.69;;;3.13;97.96
59831;BME280;45711;50.108;13.712;2022-11-13T09:55:49;99086.91;;;2.75;96.47
59831;BME280;45711;50.108;13.712;2022-11-13T09:58:23;99077.91;;;2.70;97.11
59831;BME280;45711;50.108;13.712;2022-11-13T10:00:52;99069.22;;;2.76;97.68
59831;BME280;45711;50.108;13.712;2022-11-13T10:03:29;99065.28;;;2.65;99.24
59831;BME280;45711;50.108;13.712;2022-11-13T10:06:02;99069.97;;;2.63;98.96
59831;BME280;45711;50.108;13.712;2022-11-13T10:08:33;99067.69;;;2.47;98.71
59831;BME280;45711;50.108;13.712;2022-11-13T10:11:09;99064.28;;;2.53;99.47
59831;BME280;45711;50.108;13.712;2022-11-13T10:13:39;99057.75;;;2.49;99.31
59831;BME280;45711;50.108;13.712;2022-11-13T10:16:26;99058.56;;;2.49;99.73
59831;BME280;45711;50.108;13.712;2022-11-13T10:19:05;99053.88;;;2.51;99.99
59831;BME280;45711;50.108;13.712;2022-11-13T10:21:35;99048.28;;;2.74;99.67
59831;BME280;45711;50.108;13.712;2022-11-13T10:24:07;99043.16;;;2.66;99.17
59831;BME280;45711;50.108;13.712;2022-11-13T10:26:36;99046.00;;;2.71;99.61
59831;BME280;45711;50.108;13.712;2022-11-13T10:29:10;99055.97;;;2.69;99.80
59831;BME280;45711;50.108;13.712;2022-11-13T10:31:41;99040.72;;;2.71;100.00
59831;BME280;45711;50.108;13.712;2022-11-13T10:34:10;99043.81;;;2.95;100.00
59831;BME280;45711;50.108;13.712;2022-11-13T10:36:43;99043.41;;;2.98;99.54
59831;BME280;45711;50.108;13.712;2022-11-13T10:39:13;99028.75;;;2.82;100.00
59831;BME280;45711;50.108;13.712;2022-11-13T10:41:46;99031.41;;;3.02;100.00
59831;BME280;45711;50.108;13.712;2022-11-13T10:44:31;99026.97;;;3.36;99.56
59831;BME280;45711;50.108;13.712;2022-11-13T10:47:05;99024.28;;;3.42;96.80
59831;BME280;45711;50.108;13.712;2022-11-13T10:49:39;99028.75;;;3.55;97.53
59831;BME280;45711;50.108;13.712;2022-11-13T10:52:16;99023.97;;;4.10;97.02
59831;BME280;45711;50.108;13.712;2022-11-13T10:54:42;99023.16;;;4.03;94.68
59831;BME280;45711;50.108;13.712;2022-11-13T10:57:21;99017.03;;;4.54;94.10
59831;BME280;45711;50.108;13.712;2022-11-13T10:59:48;99003.34;;;4.12;95.29
59831;BME280;45711;50.108;13.712;2022-11-13T11:02:16;99003.59;;;4.04;96.01
59831;BME280;45711;50.108;13.712;2022-11-13T11:04:44;98999.31;;;4.03;95.39
59831;BME280;45711;50.108;13.712;2022-11-13T11:07:13;99001.44;;;4.33;94.41
59831;BME280;45711;50.108;13.712;2022-11-13T11:09:46;98994.16;;;4.21;95.73
59831;BME280;45711;50.108;13.712;2022-11-13T11:12:14;98999.53;;;3.95;96.03
59831;BME280;45711;50.108;13.712;2022-11-13T11:14:52;98986.94;;;3.97;97.41
59831;BME280;45711;50.108;13.712;2022-11-13T11:17:24;98979.50;;;4.19;96.52
59831;BME280;45711;50.108;13.712;2022-11-13T11:19:56;98976.28;;;4.10;96.89
59831;BME280;45711;50.108;13.712;2022-11-13T11:22:27;98976.63;;;4.20;96.27
59831;BME280;45711;50.108;13.712;2022-11-13T11:24:59;98972.38;;;4.13;97.52
59831;BME280;45711;50.108;13.712;2022-11-13T11:27:30;98969.31;;;4.09;96.50
59831;BME280;45711;50.108;13.712;2022-11-13T11:30:02;98958.66;;;4.29;95.93
59831;BME280;45711;50.108;13.712;2022-11-13T11:32:32;98957.44;;;4.25;95.68
59831;BME280;45711;50.108;13.712;2022-11-13T11:35:07;98957.84;;;4.28;95.25
59831;BME280;45711;50.108;13.712;2022-11-13T11:37:42;98941.16;;;4.21;96.03
59831;BME280;45711;50.108;13.712;2022-11-13T11:40:16;98951.81;;;4.53;94.21
59831;BME280;45711;50.108;13.712;2022-11-13T11:42:47;98941.47;;;4.38;94.85
59831;BME280;45711;50.108;13.712;2022-11-13T11:45:19;98940.03;;;4.42;94.61
59831;BME280;45711;50.108;13.712;2022-11-13T11:47:48;98942.91;;;4.34;95.02
59831;BME280;45711;50.108;13.712;2022-11-13T11:50:16;98937.91;;;4.19;96.78
59831;BME280;45711;50.108;13.712;2022-11-13T11:52:54;98940.06;;;4.36;95.95
59831;BME280;45711;50.108;13.712;2022-11-13T11:55:40;98928.84;;;4.40;95.39
59831;BME280;45711;50.108;13.712;2022-11-13T11:58:19;98922.84;;;4.20;96.62
59831;BME280;45711;50.108;13.712;2022-11-13T12:00:58;98918.50;;;4.25;96.78
59831;BME280;45711;50.108;13.712;2022-11-13T12:03:38;98917.13;;;4.54;94.53
59831;BME280;45711;50.108;13.712;2022-11-13T12:06:19;98916.06;;;4.56;94.38
59831;BME280;45711;50.108;13.712;2022-11-13T12:08:50;98902.88;;;4.74;93.33
59831;BME280;45711;50.108;13.712;2022-11-13T12:11:24;98907.56;;;4.47;94.96
59831;BME280;45711;50.108;13.712;2022-11-13T12:14:00;98913.28;;;4.44;95.35
59831;BME280;45711;50.108;13.712;2022-11-13T12:16:34;98906.16;;;4.76;94.16
59831;BME280;45711;50.108;13.712;2022-11-13T12:19:04;98902.69;;;4.44;95.05
59831;BME280;45711;50.108;13.712;2022-11-13T12:21:47;98894.31;;;4.47;95.50
59831;BME280;45711;50.108;13.712;2022-11-13T12:24:35;98892.09;;;4.44;96.84
59831;BME280;45711;50.108;13.712;2022-11-13T12:27:13;98884.06;;;4.57;95.23
59831;BME280;45711;50.108;13.712;2022-11-13T12:29:50;98877.72;;;4.58;96.09
59831;BME280;45711;50.108;13.712;2022-11-13T12:32:28;98878.31;;;4.60;95.79
59831;BME280;45711;50.108;13.712;2022-11-13T12:35:01;98874.56;;;4.43;96.19
59831;BME280;45711;50.108;13.712;2022-11-13T12:37:33;98875.81;;;4.65;96.16
59831;BME280;45711;50.108;13.712;2022-11-13T12:40:06;98876.97;;;4.76;93.99
59831;BME280;45711;50.108;13.712;2022-11-13T12:42:34;98874.78;;;4.41;95.48
59831;BME280;45711;50.108;13.712;2022-11-13T12:45:08;98870.19;;;4.55;95.24
59831;BME280;45711;50.108;13.712;2022-11-13T12:47:37;98876.59;;;4.72;94.12
59831;BME280;45711;50.108;13.712;2022-11-13T12:50:04;98866.88;;;4.35;95.92
59831;BME280;45711;50.108;13.712;2022-11-13T12:52:32;98863.22;;;4.36;96.03
59831;BME280;45711;50.108;13.712;2022-11-13T12:55:07;98852.19;;;4.39;96.58
59831;BME280;45711;50.108;13.712;2022-11-13T12:57:33;98861.22;;;4.56;94.91
59831;BME280;45711;50.108;13.712;2022-11-13T13:00:21;98857.22;;;4.47;96.01
59831;BME280;45711;50.108;13.712;2022-11-13T13:02:54;98850.34;;;4.64;95.50